Airfield :
LOGIN :

Register | Disclaimer

   EN    FR    IT 

 










Legend :    VFR   Marginal VFR   IFR   Intensive IFR   Very Intensive IFR
Visi :
Ceiling :
>= 8 km
>= 3000ft
5 to 8 km
1000 to 3000 ft
1500m to 5 km
500 to 1000 ft
800 to 1500m
200 to 500 ft
< 800m
< 200 ft
Symbols :   Thunderstorms  Fog  Heavy snow  Heavy precipitations  Wind > 20 kt
SIGMETs :     Misc.  Thunderstorms  Icing  Turbulence  Mountain Waves  Volcanic Ashes






- Airport Elevation : 1411 ft
- IATA code : ZHI


LSZG - Grenchen

CURRENT METAR :
  • 142220Z AUTO 19004KT CAVOK 19/09 Q1014

EXPIRED METARs :
  • 142150Z AUTO 21004KT CAVOK 20/08 Q1014
  • 142120Z AUTO 19005KT CAVOK 21/08 Q1014
  • 142050Z AUTO 19004KT CAVOK 21/08 Q1014
  • 142020Z AUTO 29003KT 230V330 CAVOK 23/06 Q1014
  • 141950Z AUTO 30004KT 250V010 9999 NSC 22/06 Q1014

TAF TAF LSZG
Valid from the 14 at 15:00 until the 15 at 00:00 UTC


141425Z 1415/1424 21004KT 9999 SCT070
ATIS : +41 32 396 96 33



MET'MAP, your aeronautical weather chart ! - Copyright ORBIFLY December 2007 - Disclaimer

ORBIFLY MET'MAP TEAM :

Programming & Development : Alexandra Zaïnal
Concept & original design : Baudouin d'Aumeries
Assistance for programming : Marc-Olivier Méhu
Technical & hardware support : Manuel Goepfert

Contact : metmap@orbifly.com




SOURCES & CREDITS :

   NOAA